Time;durP1;ratioP1;P1;durP2;ratioP2;P2;SDS_P1;SDS_P2;PMS_P1;PMS_P2;Temp;Humidity;BMP_temperature;BMP_pressure;BME280_temperature;BME280_humidity;BME280_pressure;Samples;Min_cycle;Max_cycle;Signal;HPM_P1;HPM_P2
2022/06/23 00:01:57;;;;;;;7.82;5.85;;;15.00;99.90;;;;;;5104063;28;20103;-62
2022/06/23 00:04:26;;;;;;;9.50;6.22;;;15.00;99.90;;;;;;5104682;28;20092;-62
2022/06/23 00:06:59;;;;;;;9.70;6.60;;;14.70;99.90;;;;;;5102960;28;20181;-62
2022/06/23 00:09:39;;;;;;;8.73;6.00;;;15.10;99.90;;;;;;5105106;28;20044;-62
2022/06/23 00:12:35;;;;;;;7.43;6.30;;;15.10;99.90;;;;;;5104277;28;20040;-63
2022/06/23 00:15:01;;;;;;;9.00;6.00;;;;;;;;;;5103799;28;20043;-62
2022/06/23 00:17:31;;;;;;;9.30;6.10;;;14.90;99.90;;;;;;5104457;28;20397;-64
2022/06/23 00:20:01;;;;;;;10.35;6.50;;;15.20;99.90;;;;;;5085786;28;20111;-62
2022/06/23 00:22:30;;;;;;;7.93;5.93;;;15.00;99.90;;;;;;5104501;28;20093;-63
2022/06/23 00:24:58;;;;;;;10.43;6.20;;;15.40;99.90;;;;;;5103881;28;20067;-64
2022/06/23 00:27:35;;;;;;;11.57;6.25;;;14.90;99.90;;;;;;5085956;28;20072;-62
2022/06/23 00:30:26;;;;;;;10.85;6.40;;;15.00;99.90;;;;;;5085496;28;20111;-62
2022/06/23 00:32:52;;;;;;;10.82;6.75;;;14.70;99.90;;;;;;5079118;28;20044;-63
2022/06/23 00:35:19;;;;;;;10.20;7.00;;;14.50;99.90;;;;;;5084191;28;20048;-62
2022/06/23 00:37:49;;;;;;;12.07;6.75;;;14.90;99.90;;;;;;5083664;28;20044;-62
2022/06/23 00:40:22;;;;;;;10.68;6.18;;;14.80;99.90;;;;;;5066172;28;20081;-62
2022/06/23 00:42:58;;;;;;;10.65;6.50;;;14.90;99.90;;;;;;5083353;28;20068;-62
2022/06/23 00:45:33;;;;;;;8.77;7.18;;;14.40;99.90;;;;;;5083409;28;20036;-62
2022/06/23 00:48:11;;;;;;;7.85;6.70;;;14.70;99.90;;;;;;5083438;28;20290;-62
2022/06/23 00:50:39;;;;;;;8.38;6.85;;;14.20;99.90;;;;;;5083758;28;20226;-62
2022/06/23 00:53:05;;;;;;;9.73;6.90;;;14.70;99.90;;;;;;5083360;28;20272;-62
2022/06/23 00:55:46;;;;;;;9.98;7.00;;;14.70;99.90;;;;;;5083420;28;20357;-62
2022/06/23 00:58:26;;;;;;;13.27;7.20;;;14.60;99.90;;;;;;5065325;28;20037;-62
2022/06/23 01:00:58;;;;;;;10.05;7.35;;;14.60;99.90;;;;;;5080782;28;20116;-62
2022/06/23 01:03:37;;;;;;;10.68;7.72;;;14.50;99.90;;;;;;5075913;28;20310;-62
2022/06/23 01:06:17;;;;;;;10.50;7.32;;;14.50;99.90;;;;;;5082430;28;20101;-62
2022/06/23 01:08:54;;;;;;;9.45;7.53;;;14.00;99.90;;;;;;5083100;28;20314;-62
2022/06/23 01:11:26;;;;;;;10.93;7.32;;;14.50;99.90;;;;;;5083394;28;20267;-62
2022/06/23 01:14:06;;;;;;;13.05;8.23;;;14.40;99.90;;;;;;5082642;28;20108;-62
2022/06/23 01:16:55;;;;;;;11.20;7.80;;;14.60;99.90;;;;;;5083059;28;20044;-62
2022/06/23 01:19:52;;;;;;;11.70;8.10;;;14.40;99.90;;;;;;5062806;28;20308;-63
2022/06/23 01:22:38;;;;;;;10.52;7.70;;;14.30;99.90;;;;;;5045242;28;20234;-62
2022/06/23 01:25:16;;;;;;;11.52;8.10;;;14.50;99.90;;;;;;5041605;28;20084;-62
2022/06/23 01:27:57;;;;;;;12.13;8.25;;;14.40;99.90;;;;;;5078239;28;20255;-62
2022/06/23 01:30:27;;;;;;;12.60;8.50;;;14.30;99.90;;;;;;5084245;28;20234;-62
2022/06/23 01:33:11;;;;;;;11.38;8.30;;;14.50;99.90;;;;;;5123280;28;20054;-62
2022/06/23 01:36:11;;;;;;;14.43;8.38;;;14.40;99.90;;;;;;5109477;28;20046;-62
2022/06/23 01:38:51;;;;;;;10.88;7.70;;;14.40;99.90;;;;;;5102972;28;20043;-62
2022/06/23 01:41:42;;;;;;;11.88;8.20;;;14.50;99.90;;;;;;5084424;28;20039;-62
2022/06/23 01:44:08;;;;;;;11.57;8.07;;;14.50;99.90;;;;;;5102450;28;20036;-62
2022/06/23 01:46:39;;;;;;;13.23;8.80;;;14.40;99.90;;;;;;5102934;28;20054;-62
2022/06/23 01:49:26;;;;;;;12.90;8.45;;;14.20;99.90;;;;;;5102883;28;20222;-62
2022/06/23 01:51:54;;;;;;;11.25;8.82;;;14.30;99.90;;;;;;5102277;28;20099;-62
2022/06/23 01:54:20;;;;;;;13.55;8.95;;;14.50;99.90;;;;;;5102591;28;20310;-62
2022/06/23 01:57:03;;;;;;;11.45;8.35;;;14.60;99.90;;;;;;5101677;28;20099;-62
2022/06/23 01:59:47;;;;;;;13.63;8.82;;;14.10;99.90;;;;;;5102336;28;20044;-62
2022/06/23 02:02:34;;;;;;;10.32;8.20;;;14.20;99.90;;;;;;5084473;28;20450;-62
2022/06/23 02:05:09;;;;;;;12.07;8.20;;;14.10;99.90;;;;;;5102077;28;20222;-62
2022/06/23 02:07:51;;;;;;;13.57;9.25;;;14.10;99.90;;;;;;5102781;28;20216;-62
2022/06/23 02:10:19;;;;;;;11.93;8.70;;;14.00;99.90;;;;;;5083782;28;20226;-62
2022/06/23 02:12:53;;;;;;;11.73;9.30;;;13.90;99.90;;;;;;5063667;28;20230;-63
2022/06/23 02:15:50;;;;;;;11.98;9.05;;;14.00;99.90;;;;;;5081808;28;20120;-62
2022/06/23 02:18:25;;;;;;;13.85;9.50;;;14.00;99.90;;;;;;5082020;28;20044;-62
2022/06/23 02:21:20;;;;;;;11.43;9.27;;;14.10;99.90;;;;;;5081540;28;20044;-62
2022/06/23 02:24:00;;;;;;;12.43;9.65;;;14.20;99.90;;;;;;5081266;28;20036;-62
2022/06/23 02:26:37;;;;;;;12.15;9.10;;;13.60;99.90;;;;;;5063592;28;20048;-62
2022/06/23 02:29:26;;;;;;;12.10;8.73;;;13.90;99.90;;;;;;5063186;28;20253;-62
2022/06/23 02:32:05;;;;;;;12.18;9.18;;;14.50;99.90;;;;;;5092641;28;20079;-61
2022/06/23 02:34:51;;;;;;;10.88;8.70;;;14.00;99.90;;;;;;5102324;28;20035;-62
2022/06/23 02:37:48;;;;;;;14.65;9.10;;;14.20;99.90;;;;;;5101785;28;20110;-62
2022/06/23 02:40:29;;;;;;;15.02;9.15;;;14.10;99.90;;;;;;5100532;28;20054;-62
2022/06/23 02:43:13;;;;;;;12.20;9.43;;;13.70;99.90;;;;;;5101788;28;20282;-62
2022/06/23 02:45:54;;;;;;;15.93;9.75;;;13.90;99.90;;;;;;5101497;28;20067;-62
2022/06/23 02:48:29;;;;;;;17.65;10.15;;;14.00;99.90;;;;;;5102010;28;20229;-62
2022/06/23 02:51:07;;;;;;;16.75;10.02;;;13.80;99.90;;;;;;5101011;28;20351;-62
2022/06/23 02:53:50;;;;;;;11.88;9.00;;;14.00;99.90;;;;;;5101919;28;20087;-62
2022/06/23 02:56:29;;;;;;;12.88;9.85;;;14.00;99.90;;;;;;5101788;28;20071;-62
2022/06/23 02:59:21;;;;;;;12.15;9.45;;;14.00;99.90;;;;;;5100272;28;20093;-62
2022/06/23 03:01:52;;;;;;;13.00;9.57;;;14.00;99.90;;;;;;5101271;28;20040;-62
2022/06/23 03:04:29;;;;;;;16.10;9.48;;;13.90;99.90;;;;;;5100587;28;20067;-62
2022/06/23 03:07:12;;;;;;;16.15;10.27;;;14.00;99.90;;;;;;5101252;28;20047;-62
2022/06/23 03:09:46;;;;;;;13.93;9.65;;;13.90;99.90;;;;;;5101235;28;20079;-62
2022/06/23 03:12:39;;;;;;;14.10;9.15;;;14.00;99.90;;;;;;5100609;28;20068;-62
2022/06/23 03:15:13;;;;;;;14.27;9.48;;;13.90;99.90;;;;;;5101484;28;20048;-62
2022/06/23 03:18:00;;;;;;;13.25;9.30;;;14.00;99.90;;;;;;5101178;28;20055;-62
2022/06/23 03:20:41;;;;;;;14.20;9.60;;;14.10;99.90;;;;;;5101385;28;20044;-62
2022/06/23 03:23:33;;;;;;;14.07;9.50;;;14.20;99.90;;;;;;5101236;28;20340;-62
2022/06/23 03:26:22;;;;;;;13.43;9.55;;;13.90;99.90;;;;;;5090016;28;20324;-62
2022/06/23 03:29:22;;;;;;;12.88;8.90;;;14.20;99.90;;;;;;5100960;28;20046;-62
2022/06/23 03:32:09;;;;;;;14.32;9.70;;;13.80;99.90;;;;;;5099543;28;20056;-62
2022/06/23 03:34:54;;;;;;;14.80;9.80;;;13.40;99.90;;;;;;5101392;28;20066;-62
2022/06/23 03:37:33;;;;;;;13.33;9.50;;;13.70;99.90;;;;;;5101406;28;20047;-62
2022/06/23 03:43:15;;;;;;;15.80;9.27;;;13.80;99.90;;;;;;5104075;28;20277;-62
2022/06/23 03:45:48;;;;;;;13.63;9.10;;;13.80;99.90;;;;;;5104780;28;20346;-62
2022/06/23 03:48:24;;;;;;;14.80;9.18;;;13.90;99.90;;;;;;5105095;28;20036;-63
2022/06/23 03:51:09;;;;;;;12.48;9.48;;;13.70;99.90;;;;;;5104751;28;20048;-62
2022/06/23 03:53:45;;;;;;;11.50;8.95;;;13.80;99.90;;;;;;5104563;28;20040;-62
2022/06/23 03:56:17;;;;;;;15.55;9.70;;;13.60;99.90;;;;;;5105012;28;20094;-62
2022/06/23 03:58:57;;;;;;;12.45;9.40;;;13.80;99.90;;;;;;5104602;28;20051;-62
2022/06/23 04:01:35;;;;;;;14.27;9.20;;;13.80;99.90;;;;;;5104651;28;20040;-62
2022/06/23 04:04:18;;;;;;;14.85;9.30;;;14.20;99.90;;;;;;5104085;28;20203;-62
2022/06/23 04:06:46;;;;;;;12.25;8.35;;;14.70;99.90;;;;;;5104061;28;20226;-62
2022/06/23 04:09:36;;;;;;;11.25;8.55;;;16.00;99.90;;;;;;5104460;28;20047;-62
2022/06/23 04:12:14;;;;;;;12.57;7.32;;;16.10;99.90;;;;;;5103739;28;20318;-62
2022/06/23 04:14:42;;;;;;;9.50;7.40;;;17.10;99.90;;;;;;5104576;28;20054;-62
2022/06/23 04:17:29;;;;;;;10.93;7.25;;;17.60;99.90;;;;;;5104291;28;20040;-62
2022/06/23 04:20:14;;;;;;;12.63;7.25;;;17.20;99.90;;;;;;5103540;28;20043;-62
2022/06/23 04:22:46;;;;;;;9.50;7.03;;;17.00;99.90;;;;;;5104618;28;20047;-62
2022/06/23 04:25:18;;;;;;;8.32;7.15;;;17.10;99.90;;;;;;5104668;28;20048;-62
2022/06/23 04:27:49;;;;;;;10.20;7.10;;;17.30;99.90;;;;;;5103331;28;20042;-62
2022/06/23 04:30:29;;;;;;;11.85;7.32;;;17.00;99.90;;;;;;5101835;28;20111;-62
2022/06/23 04:32:58;;;;;;;10.15;7.40;;;17.00;99.90;;;;;;5072235;28;20052;-62
2022/06/23 04:35:36;;;;;;;9.50;6.78;;;17.80;99.90;;;;;;5082613;28;20105;-62
2022/06/23 04:38:16;;;;;;;9.20;7.03;;;18.90;99.90;;;;;;5082349;28;20049;-62
2022/06/23 04:40:42;;;;;;;8.73;6.65;;;18.80;99.90;;;;;;5064701;28;20056;-62
2022/06/23 04:43:31;;;;;;;9.27;6.18;;;20.20;99.90;;;;;;5082140;28;20100;-63
2022/06/23 04:46:02;;;;;;;10.15;6.18;;;20.80;99.90;;;;;;5081559;28;20037;-62
2022/06/23 04:48:31;;;;;;;8.18;6.28;;;20.80;99.90;;;;;;5083191;28;20039;-63
2022/06/23 04:51:03;;;;;;;9.05;6.20;;;21.50;99.90;;;;;;5069919;28;20040;-63
2022/06/23 04:53:45;;;;;;;7.53;5.80;;;22.80;99.90;;;;;;5045217;28;20056;-63
2022/06/23 04:56:19;;;;;;;7.85;6.00;;;23.30;99.90;;;;;;5063366;28;20226;-62
2022/06/23 04:58:51;;;;;;;9.60;5.95;;;23.60;99.90;;;;;;5063045;28;20037;-62
2022/06/23 05:01:22;;;;;;;8.73;5.78;;;23.60;99.90;;;;;;5063246;28;20338;-63
2022/06/23 05:03:58;;;;;;;7.47;5.50;;;24.40;99.90;;;;;;5063749;28;20059;-63
2022/06/23 05:06:58;;;;;;;9.35;5.88;;;24.50;99.90;;;;;;5031842;28;20041;-62
2022/06/23 05:09:34;;;;;;;10.25;5.50;;;25.10;91.60;;;;;;5019933;28;20041;-63
2022/06/23 05:12:04;;;;;;;6.95;5.50;;;25.80;91.40;;;;;;5062615;28;20033;-63
2022/06/23 05:14:46;;;;;;;8.95;5.75;;;26.30;87.90;;;;;;5045086;28;20041;-63
2022/06/23 05:17:20;;;;;;;8.68;5.60;;;26.50;92.00;;;;;;5063258;28;20091;-63
2022/06/23 05:19:48;;;;;;;11.85;5.55;;;26.60;77.30;;;;;;5062116;28;20116;-63
2022/06/23 05:22:25;;;;;;;8.95;6.10;;;27.40;87.10;;;;;;5062859;28;20049;-64
2022/06/23 05:24:52;;;;;;;10.48;5.22;;;26.80;75.50;;;;;;5062263;28;20040;-63
2022/06/23 05:27:32;;;;;;;8.38;5.63;;;27.50;80.50;;;;;;5062385;28;20268;-62
2022/06/23 05:30:28;;;;;;;9.48;5.70;;;27.50;78.70;;;;;;5062575;28;20059;-63
2022/06/23 05:32:56;;;;;;;;;;;28.00;68.30;;;;;;5064666;28;20072;-63
2022/06/23 05:35:46;;;;;;;11.02;5.80;;;28.40;75.20;;;;;;5077324;28;19958;-63
2022/06/23 05:38:12;;;;;;;11.32;5.30;;;28.00;74.90;;;;;;5082581;28;20052;-63
2022/06/23 05:40:59;;;;;;;12.07;5.50;;;28.60;72.30;;;;;;5076061;28;20112;-63
2022/06/23 05:43:26;;;;;;;11.23;5.75;;;28.50;71.40;;;;;;5045242;28;20052;-63
2022/06/23 05:45:59;;;;;;;16.20;5.57;;;29.10;62.90;;;;;;5080957;28;20038;-63
2022/06/23 05:48:29;;;;;;;11.95;6.03;;;29.70;67.30;;;;;;5080327;28;20055;-63
2022/06/23 05:51:10;;;;;;;14.57;5.80;;;29.60;65.00;;;;;;5080917;28;20063;-63
2022/06/23 05:53:57;;;;;;;20.20;5.95;;;29.80;64.50;;;;;;5063336;28;20076;-63
2022/06/23 05:56:40;;;;;;;16.02;5.75;;;29.50;69.20;;;;;;5080964;28;20033;-63
2022/06/23 05:59:20;;;;;;;20.63;5.72;;;29.80;65.60;;;;;;5081095;28;20326;-63
2022/06/23 06:01:56;;;;;;;14.15;6.05;;;30.00;62.80;;;;;;5080558;28;20045;-63
2022/06/23 06:04:24;;;;;;;9.75;5.60;;;29.80;61.50;;;;;;5079801;28;20148;-63
2022/06/23 06:06:49;;;;;;;10.80;4.90;;;30.20;62.60;;;;;;5080490;28;20325;-63
2022/06/23 13:03:36;;;;;;;4.20;2.40;;;34.50;39.90;;;;;;5122787;22;20063;-67
2022/06/23 13:06:21;;;;;;;6.43;2.85;;;34.20;40.40;;;;;;5076866;28;20399;-66
2022/06/23 13:09:03;;;;;;;8.85;2.53;;;34.10;39.50;;;;;;5090576;28;20048;-67
2022/06/23 13:11:32;;;;;;;8.68;2.70;;;34.10;40.00;;;;;;5087297;28;20395;-67
2022/06/23 13:14:06;;;;;;;7.30;2.35;;;34.20;39.60;;;;;;5090389;28;20529;-67
2022/06/23 13:16:49;;;;;;;4.30;2.25;;;34.30;39.30;;;;;;5091104;28;20048;-67
2022/06/23 13:19:31;;;;;;;12.25;2.50;;;34.30;40.00;;;;;;5090377;28;20032;-68
2022/06/23 13:22:06;;;;;;;23.27;3.08;;;34.30;39.60;;;;;;5090254;28;20440;-68
2022/06/23 13:24:34;;;;;;;10.80;2.40;;;34.30;39.20;;;;;;5091304;28;20140;-67
2022/06/23 13:27:11;;;;;;;5.63;2.30;;;34.30;39.60;;;;;;5090033;28;20055;-67
2022/06/23 13:29:58;;;;;;;7.20;2.50;;;34.30;39.40;;;;;;5089156;28;20129;-67
2022/06/23 13:32:51;;;;;;;5.55;2.60;;;34.40;38.80;;;;;;5090175;28;20059;-67
2022/06/23 13:35:16;;;;;;;5.80;2.50;;;34.50;39.10;;;;;;5088744;28;20047;-68
2022/06/23 13:37:51;;;;;;;8.63;2.50;;;34.50;39.10;;;;;;5071722;28;20067;-67
2022/06/23 13:40:38;;;;;;;5.50;2.38;;;34.60;39.20;;;;;;5089374;28;20121;-67
2022/06/23 13:43:16;;;;;;;5.13;2.45;;;34.60;39.00;;;;;;5089710;28;20050;-67
2022/06/23 13:45:50;;;;;;;9.98;2.22;;;34.70;38.60;;;;;;5088623;28;20040;-68
2022/06/23 13:48:36;;;;;;;;;;;33.90;38.20;;;;;;5090051;28;20048;-68
2022/06/23 13:51:31;;;;;;;9.45;2.85;;;34.80;39.10;;;;;;5047542;28;19923;-67
2022/06/23 13:54:23;;;;;;;6.35;2.58;;;34.80;39.10;;;;;;5089869;28;20054;-67
2022/06/23 13:57:07;;;;;;;8.48;2.50;;;34.90;38.10;;;;;;5053341;28;20355;-67
2022/06/23 14:00:06;;;;;;;8.65;2.55;;;34.90;37.70;;;;;;5090033;28;20073;-67
2022/06/23 14:03:01;;;;;;;6.82;2.47;;;34.60;38.50;;;;;;5032747;28;20048;-67
2022/06/23 14:05:45;;;;;;;4.90;2.40;;;34.70;39.00;;;;;;5071989;28;20051;-67
2022/06/23 14:08:35;;;;;;;4.20;2.53;;;34.60;38.80;;;;;;5089796;28;20040;-67
2022/06/23 14:11:09;;;;;;;10.00;2.60;;;34.60;38.20;;;;;;5070786;28;20348;-67
2022/06/23 14:13:51;;;;;;;3.78;2.40;;;34.60;38.50;;;;;;5072117;28;20048;-67
2022/06/23 14:16:33;;;;;;;5.57;2.33;;;34.60;38.40;;;;;;5070827;28;20292;-67
2022/06/23 14:19:19;;;;;;;9.50;2.65;;;34.60;38.00;;;;;;5087641;28;20048;-67
2022/06/23 14:21:57;;;;;;;9.63;2.53;;;34.50;40.70;;;;;;5071376;28;20118;-68
2022/06/23 14:24:40;;;;;;;5.20;2.50;;;34.60;38.30;;;;;;5089683;28;20052;-67
2022/06/23 14:27:18;;;;;;;4.68;2.33;;;34.60;38.10;;;;;;5070674;28;20448;-66
2022/06/23 14:29:49;;;;;;;9.30;2.90;;;34.60;38.40;;;;;;5089192;28;20039;-66
2022/06/23 14:32:24;;;;;;;4.25;2.50;;;34.60;38.20;;;;;;5089110;28;20498;-66
2022/06/23 14:35:05;;;;;;;8.55;2.80;;;34.70;38.50;;;;;;5071265;28;20119;-67
2022/06/23 14:37:50;;;;;;;10.38;2.70;;;34.60;38.10;;;;;;5089730;28;20055;-67
2022/06/23 14:40:20;;;;;;;6.05;2.70;;;34.70;38.10;;;;;;5088228;28;20055;-67
2022/06/23 14:42:52;;;;;;;5.35;2.58;;;34.60;38.40;;;;;;5088716;28;20110;-67
2022/06/23 14:45:48;;;;;;;5.35;2.50;;;34.70;38.20;;;;;;5088543;28;20071;-66
2022/06/23 14:48:39;;;;;;;5.63;2.65;;;34.70;37.50;;;;;;5071433;28;20044;-68
2022/06/23 14:51:18;;;;;;;5.18;2.75;;;34.70;38.00;;;;;;5068933;28;20082;-67
2022/06/23 14:53:58;;;;;;;5.20;2.70;;;34.70;38.80;;;;;;5090027;28;20054;-67
2022/06/23 14:56:31;;;;;;;6.00;2.70;;;34.80;38.40;;;;;;5070712;28;20055;-67
2022/06/23 14:59:02;;;;;;;5.55;2.63;;;34.80;39.00;;;;;;5087734;28;20076;-67
2022/06/23 15:02:00;;;;;;;4.40;2.63;;;34.80;38.60;;;;;;5087610;28;20508;-67
2022/06/23 15:04:42;;;;;;;17.98;3.25;;;34.90;39.10;;;;;;5071253;28;20126;-67
2022/06/23 15:07:08;;;;;;;7.85;2.50;;;34.90;39.00;;;;;;5089786;28;20098;-67
2022/06/23 15:09:52;;;;;;;4.85;2.65;;;34.90;38.70;;;;;;5089391;28;20048;-67
2022/06/23 15:12:43;;;;;;;5.10;2.80;;;33.50;37.30;;;;;;5088768;28;20130;-67
2022/06/23 15:15:28;;;;;;;7.13;2.95;;;34.70;38.50;;;;;;5085980;28;20072;-67
2022/06/23 15:18:34;;;;;;;6.22;2.47;;;34.70;38.60;;;;;;5084109;28;20040;-66
2022/06/23 15:24:04;;;;;;;3.78;2.50;;;34.70;38.80;;;;;;5069532;28;20041;-66
2022/06/23 15:26:37;;;;;;;5.32;2.70;;;34.80;38.90;;;;;;5053963;28;20056;-66
2022/06/23 15:29:27;;;;;;;12.70;2.63;;;34.80;39.10;;;;;;5072105;28;20678;-67
2022/06/23 15:32:12;;;;;;;8.73;3.10;;;34.80;38.60;;;;;;5089210;28;20048;-67
2022/06/23 15:34:44;;;;;;;8.88;2.60;;;34.80;38.80;;;;;;5054631;28;20064;-66
2022/06/23 15:37:40;;;;;;;8.23;2.50;;;34.70;39.00;;;;;;5091672;28;20263;-67
2022/06/23 15:40:41;;;;;;;9.70;2.80;;;34.60;39.00;;;;;;5085088;28;20044;-66
2022/06/23 15:43:16;;;;;;;7.88;2.42;;;34.60;38.70;;;;;;5092177;28;20043;-66
2022/06/23 15:46:02;;;;;;;6.47;2.85;;;34.60;39.10;;;;;;5092154;28;20044;-66
2022/06/23 15:48:40;;;;;;;4.47;2.80;;;34.60;38.90;;;;;;5071602;28;20047;-67
2022/06/23 15:51:23;;;;;;;5.20;2.63;;;34.50;38.80;;;;;;5086144;28;20049;-66
2022/06/23 15:53:57;;;;;;;9.88;3.05;;;34.50;38.80;;;;;;5091892;28;20120;-67
2022/06/23 15:56:33;;;;;;;9.38;2.80;;;34.50;38.90;;;;;;5067776;28;20048;-67
2022/06/23 15:59:06;;;;;;;3.72;2.67;;;34.50;38.90;;;;;;5087964;28;20135;-67
2022/06/23 16:01:53;;;;;;;12.13;3.00;;;34.40;39.10;;;;;;5055501;28;20088;-67
2022/06/23 16:04:29;;;;;;;5.38;2.75;;;34.40;39.10;;;;;;5086050;28;20135;-67
2022/06/23 16:06:58;;;;;;;9.45;2.70;;;34.40;39.20;;;;;;5088568;28;20040;-67
2022/06/23 16:09:48;;;;;;;8.07;2.70;;;34.40;39.20;;;;;;5088234;28;20040;-67
2022/06/23 16:12:37;;;;;;;6.00;2.40;;;34.30;39.60;;;;;;5084572;28;20206;-67
2022/06/23 16:15:19;;;;;;;4.93;2.70;;;34.30;39.70;;;;;;5070676;28;20048;-67
2022/06/23 16:17:49;;;;;;;4.57;2.60;;;34.30;39.60;;;;;;5085903;28;20044;-67
2022/06/23 16:20:20;;;;;;;8.13;2.80;;;34.20;40.00;;;;;;5069008;28;20126;-67
2022/06/23 16:23:09;;;;;;;12.27;2.80;;;34.10;39.80;;;;;;5086009;28;20185;-66
2022/06/23 16:25:59;;;;;;;4.70;2.72;;;34.10;40.10;;;;;;5041298;28;20150;-68
2022/06/23 16:28:43;;;;;;;7.75;2.97;;;34.10;40.00;;;;;;5076778;28;20058;-68
2022/06/23 16:31:39;;;;;;;8.90;2.70;;;34.00;40.00;;;;;;5088323;28;20044;-68
2022/06/23 16:34:22;;;;;;;5.80;2.72;;;33.90;39.70;;;;;;5081059;28;20131;-66
2022/06/23 16:36:51;;;;;;;6.50;2.60;;;33.90;40.10;;;;;;5070385;28;20232;-68
2022/06/23 16:39:37;;;;;;;5.70;2.60;;;33.80;40.00;;;;;;5086860;28;20063;-66
2022/06/23 16:42:15;;;;;;;5.65;2.63;;;33.80;39.60;;;;;;5084890;28;20043;-67
2022/06/23 16:44:43;;;;;;;5.38;2.45;;;33.70;39.40;;;;;;5087870;28;20040;-67
2022/06/23 16:47:17;;;;;;;14.77;2.88;;;33.70;39.60;;;;;;5084662;28;20040;-67
2022/06/23 16:49:57;;;;;;;4.65;2.58;;;33.60;39.50;;;;;;5085482;28;20057;-66
2022/06/23 16:52:59;;;;;;;4.07;2.45;;;33.50;39.70;;;;;;5084855;28;20052;-66
2022/06/23 16:55:36;;;;;;;5.75;2.50;;;33.50;40.10;;;;;;5062561;28;20113;-66
2022/06/23 16:58:28;;;;;;;4.88;2.50;;;33.50;40.40;;;;;;5061819;28;20040;-67
2022/06/23 17:01:08;;;;;;;5.85;2.75;;;33.40;40.20;;;;;;5083292;28;20143;-66
2022/06/23 17:03:49;;;;;;;7.55;2.80;;;33.40;40.80;;;;;;5069265;28;20048;-66
2022/06/23 17:06:25;;;;;;;5.80;2.50;;;33.30;40.10;;;;;;5072411;28;20571;-67
2022/06/23 17:09:10;;;;;;;5.40;2.70;;;33.30;39.70;;;;;;5090297;28;20511;-66
2022/06/23 17:11:46;;;;;;;5.38;2.40;;;33.20;40.10;;;;;;5090173;28;20048;-66
2022/06/23 17:14:16;;;;;;;4.78;2.65;;;33.20;40.10;;;;;;5073086;28;20052;-65
2022/06/23 17:16:49;;;;;;;3.95;2.50;;;33.20;39.90;;;;;;5072578;28;20043;-65
2022/06/23 17:19:21;;;;;;;5.68;2.65;;;33.20;40.30;;;;;;5091614;28;20051;-65
2022/06/23 17:21:49;;;;;;;9.15;2.70;;;33.20;40.60;;;;;;5087936;28;20052;-66
2022/06/23 17:24:27;;;;;;;6.32;2.70;;;33.00;40.30;;;;;;5071962;28;20056;-66
2022/06/23 17:27:22;;;;;;;4.40;2.50;;;33.00;39.90;;;;;;5058908;28;20581;-65
2022/06/23 17:29:57;;;;;;;;;;;32.90;39.90;;;;;;4974481;28;20050;-66
2022/06/23 17:32:48;;;;;;;10.52;2.60;;;32.80;39.30;;;;;;4986570;28;19987;-66
2022/06/23 17:35:34;;;;;;;8.73;2.50;;;32.60;39.60;;;;;;4987929;28;20133;-66
2022/06/23 17:44:36;;;;;;;9.93;2.50;;;32.10;40.30;;;;;;4986567;28;20092;-65
2022/06/23 17:47:12;;;;;;;5.32;2.40;;;32.00;40.20;;;;;;4955597;28;20053;-66
2022/06/23 17:49:43;;;;;;;7.97;2.60;;;31.90;40.40;;;;;;4989051;28;20126;-65
2022/06/23 17:52:28;;;;;;;5.65;2.50;;;31.80;40.30;;;;;;4972178;28;20046;-65
2022/06/23 17:55:00;;;;;;;6.05;2.35;;;31.70;40.40;;;;;;4987564;28;20643;-65
2022/06/23 17:57:37;;;;;;;3.28;2.40;;;31.70;40.60;;;;;;4987865;28;20078;-65
2022/06/23 18:00:19;;;;;;;8.73;2.45;;;31.60;40.50;;;;;;4985313;28;20189;-65
2022/06/23 18:02:48;;;;;;;5.22;2.40;;;31.60;40.50;;;;;;4986274;28;20046;-65
2022/06/23 18:05:20;;;;;;;6.22;2.35;;;31.50;40.80;;;;;;4996344;28;20494;-65
2022/06/23 18:08:01;;;;;;;6.50;2.70;;;31.40;41.00;;;;;;5088985;28;20032;-65
2022/06/23 18:10:46;;;;;;;5.13;2.60;;;31.30;40.90;;;;;;5071909;28;20368;-65
2022/06/23 18:13:16;;;;;;;5.95;2.65;;;31.10;43.30;;;;;;5089758;28;20040;-65
2022/06/23 18:16:00;;;;;;;5.68;2.40;;;31.10;41.30;;;;;;5067638;28;20051;-65
2022/06/23 18:18:40;;;;;;;5.07;2.50;;;31.50;41.90;;;;;;5089347;28;20059;-65
2022/06/23 18:21:20;;;;;;;4.05;2.50;;;31.00;45.00;;;;;;5071136;28;20058;-65
2022/06/23 18:24:01;;;;;;;4.70;2.50;;;30.90;42.00;;;;;;5068329;28;20491;-65
2022/06/23 18:26:36;;;;;;;10.90;2.40;;;30.80;42.00;;;;;;5089095;28;20043;-64
2022/06/23 18:29:05;;;;;;;;;;;30.60;42.10;;;;;;5089368;28;20119;-65
2022/06/23 18:31:40;;;;;;;6.43;2.80;;;30.50;42.30;;;;;;5088488;28;19919;-65
2022/06/23 18:34:25;;;;;;;;;;;30.40;42.30;;;;;;5054597;28;20065;-65
2022/06/23 18:36:54;;;;;;;;;;;30.30;42.80;;;;;;5071356;28;19916;-65
2022/06/23 18:39:36;;;;;;;9.10;2.88;;;29.40;46.50;;;;;;5088999;28;20274;-65
2022/06/23 18:42:45;;;;;;;11.00;2.55;;;30.00;46.70;;;;;;5085834;28;20055;-65
2022/06/23 18:45:20;;;;;;;7.82;2.40;;;30.10;44.10;;;;;;5008780;28;20069;-64
2022/06/23 18:47:55;;;;;;;5.60;2.40;;;29.90;44.30;;;;;;5025415;28;20136;-66
2022/06/23 18:50:24;;;;;;;3.25;2.40;;;29.90;44.40;;;;;;5008358;28;20475;-64
2022/06/23 18:52:56;;;;;;;5.82;2.40;;;29.80;44.40;;;;;;5025492;28;20198;-65
2022/06/23 18:55:25;;;;;;;4.60;2.60;;;29.70;44.60;;;;;;5025552;28;20068;-65
2022/06/23 18:57:52;;;;;;;10.13;2.70;;;29.60;44.80;;;;;;5006269;28;20076;-65
2022/06/23 19:00:19;;;;;;;3.47;2.47;;;29.50;44.90;;;;;;5024474;28;20539;-65
2022/06/23 19:03:04;;;;;;;6.07;2.63;;;29.40;44.80;;;;;;5025734;28;20046;-64
2022/06/23 19:05:54;;;;;;;5.23;2.50;;;29.30;44.90;;;;;;5025229;28;20063;-64
2022/06/23 19:08:31;;;;;;;7.43;2.42;;;29.20;44.90;;;;;;5025805;28;20058;-65
2022/06/23 19:11:29;;;;;;;8.60;2.50;;;29.00;47.70;;;;;;5024462;28;20048;-65
2022/06/23 19:14:06;;;;;;;8.57;2.55;;;29.00;45.00;;;;;;5021314;28;20037;-64
2022/06/23 19:16:50;;;;;;;5.93;2.42;;;28.90;44.90;;;;;;5020494;28;20045;-64
2022/06/23 19:19:37;;;;;;;7.05;2.50;;;28.80;44.90;;;;;;5028888;28;20073;-64
2022/06/23 19:22:26;;;;;;;4.25;2.47;;;28.70;45.20;;;;;;5071044;28;20094;-64
2022/06/23 19:25:20;;;;;;;5.75;2.60;;;28.60;45.20;;;;;;5087880;28;20440;-65
2022/06/23 19:28:24;;;;;;;4.60;2.38;;;28.50;45.20;;;;;;5086966;28;20131;-65
2022/06/23 19:31:03;;;;;;;11.32;2.60;;;28.40;45.50;;;;;;5041712;28;20056;-64
2022/06/23 19:33:50;;;;;;;7.88;2.53;;;28.40;45.90;;;;;;5075528;28;20115;-64
2022/06/23 19:36:21;;;;;;;8.15;2.60;;;28.20;46.00;;;;;;5072990;28;20135;-65
2022/06/23 19:38:53;;;;;;;5.40;2.50;;;28.20;50.50;;;;;;5073377;28;20109;-64
2022/06/23 19:41:58;;;;;;;7.53;2.45;;;28.00;46.50;;;;;;5091201;28;20083;-64
2022/06/23 19:44:36;;;;;;;6.83;2.40;;;27.90;46.60;;;;;;5088474;28;20040;-64
2022/06/23 19:47:07;;;;;;;7.47;2.60;;;27.80;46.80;;;;;;5091056;28;20044;-64
2022/06/23 19:49:44;;;;;;;9.30;2.80;;;27.80;47.10;;;;;;5089341;28;20548;-65
2022/06/23 19:52:25;;;;;;;9.07;3.10;;;27.40;51.40;;;;;;5089047;28;20056;-64
2022/06/23 19:55:05;;;;;;;7.78;3.20;;;27.60;47.60;;;;;;5067351;28;20449;-64
2022/06/23 19:57:49;;;;;;;13.27;3.25;;;27.50;47.70;;;;;;5073286;28;20063;-64
2022/06/23 20:00:29;;;;;;;10.77;3.60;;;27.40;48.00;;;;;;5055723;28;20082;-63
2022/06/23 20:03:04;;;;;;;11.82;3.38;;;27.30;48.20;;;;;;5087432;28;20468;-64
2022/06/23 20:05:38;;;;;;;9.10;3.00;;;27.30;48.40;;;;;;5071872;28;20052;-65
2022/06/23 20:08:30;;;;;;;8.07;3.40;;;27.20;48.60;;;;;;5090826;28;20040;-64
2022/06/23 20:11:18;;;;;;;12.50;2.92;;;27.10;48.70;;;;;;5091022;28;20415;-64
2022/06/23 20:14:08;;;;;;;8.73;2.90;;;27.00;49.00;;;;;;5072325;28;20491;-64
2022/06/23 20:16:41;;;;;;;6.65;2.97;;;26.90;49.00;;;;;;5084490;28;20115;-64
2022/06/23 20:19:27;;;;;;;15.48;3.25;;;26.80;49.20;;;;;;5087935;28;20545;-64
2022/06/23 20:22:15;;;;;;;12.70;3.08;;;26.70;49.40;;;;;;5069779;28;20101;-65
2022/06/23 20:25:05;;;;;;;9.10;2.95;;;26.70;49.60;;;;;;5052234;28;20102;-64
2022/06/23 20:27:31;;;;;;;6.68;3.10;;;26.50;54.30;;;;;;5054813;28;20102;-63
2022/06/23 20:30:10;;;;;;;6.25;3.08;;;26.50;49.70;;;;;;5072040;28;20052;-64
2022/06/23 20:32:48;;;;;;;8.13;3.10;;;26.50;50.60;;;;;;5072212;28;20059;-64
2022/06/23 20:35:37;;;;;;;7.55;3.30;;;26.40;49.80;;;;;;5054681;28;20040;-64
2022/06/23 20:38:18;;;;;;;6.20;3.13;;;26.30;50.00;;;;;;5072289;28;20105;-64
2022/06/23 20:40:59;;;;;;;5.93;3.25;;;26.20;50.00;;;;;;5071437;28;20070;-64
2022/06/23 20:43:57;;;;;;;8.63;3.00;;;26.20;50.10;;;;;;5054500;28;20502;-64
2022/06/23 20:46:38;;;;;;;4.75;2.85;;;26.10;50.20;;;;;;4990988;28;20047;-64
2022/06/23 20:49:11;;;;;;;7.13;3.30;;;26.00;50.20;;;;;;4989945;28;20538;-64
2022/06/23 20:51:50;;;;;;;8.38;3.10;;;26.00;50.40;;;;;;4989955;28;20154;-64
2022/06/23 20:54:18;;;;;;;6.68;3.03;;;25.90;50.50;;;;;;4974120;28;20082;-65
2022/06/23 20:57:09;;;;;;;6.00;3.40;;;25.80;50.50;;;;;;4973469;28;20081;-64